createdAt,value
2023-02-19T00:00:41.420Z,10.10
2023-02-19T00:01:46.197Z,11.38
2023-02-19T00:02:48.359Z,10.75
2023-02-19T00:03:53.051Z,11.90
2023-02-19T00:04:54.994Z,11.23
2023-02-19T00:05:57.545Z,13.23
2023-02-19T00:06:59.657Z,11.15
2023-02-19T00:08:01.482Z,8.85
2023-02-19T00:09:03.773Z,11.27
2023-02-19T00:10:05.720Z,10.77
2023-02-19T00:11:11.539Z,8.85
2023-02-19T00:12:14.535Z,9.80
2023-02-19T00:13:16.384Z,8.75
2023-02-19T00:14:22.059Z,9.52
2023-02-19T00:15:24.718Z,9.27
2023-02-19T00:16:30.272Z,10.82
2023-02-19T00:17:32.369Z,10.35
2023-02-19T00:18:34.710Z,9.40
2023-02-19T00:19:36.590Z,10.48
2023-02-19T00:20:38.450Z,11.53
2023-02-19T00:21:40.304Z,10.07
2023-02-19T00:22:42.096Z,9.90
2023-02-19T00:23:44.055Z,9.25
2023-02-19T00:24:48.978Z,10.95
2023-02-19T00:25:51.129Z,12.07
2023-02-19T00:26:52.735Z,13.52
2023-02-19T00:27:54.902Z,14.80
2023-02-19T00:28:58.640Z,12.48
2023-02-19T00:30:00.684Z,12.93
2023-02-19T00:31:16.040Z,13.53
2023-02-19T00:32:21.158Z,11.35
2023-02-19T00:33:23.767Z,12.38
2023-02-19T00:34:25.829Z,12.35
2023-02-19T00:35:27.622Z,14.63
2023-02-19T00:36:32.795Z,14.20
2023-02-19T00:37:35.060Z,10.93
2023-02-19T00:38:41.204Z,14.45
2023-02-19T00:39:43.142Z,14.40
2023-02-19T00:40:44.784Z,14.05
2023-02-19T00:41:47.433Z,14.93
2023-02-19T00:42:49.452Z,12.45
2023-02-19T00:43:59.678Z,12.68
2023-02-19T00:45:03.166Z,14.77
2023-02-19T00:46:05.155Z,14.98
2023-02-19T00:47:06.973Z,13.23
2023-02-19T00:48:09.740Z,11.63
2023-02-19T00:49:23.025Z,15.38
2023-02-19T00:50:27.902Z,10.63
2023-02-19T00:51:32.408Z,14.75
2023-02-19T00:52:38.740Z,14.20
2023-02-19T00:53:41.813Z,13.30
2023-02-19T00:54:47.326Z,14.70
2023-02-19T00:55:48.999Z,16.95
2023-02-19T00:56:51.241Z,17.65
2023-02-19T00:57:52.954Z,16.83
2023-02-19T00:58:55.329Z,16.08
2023-02-19T00:59:57.467Z,14.27
2023-02-19T01:00:59.454Z,13.65
2023-02-19T01:02:01.306Z,13.70
2023-02-19T01:03:03.100Z,13.57
2023-02-19T01:04:06.727Z,11.55
2023-02-19T01:05:08.934Z,10.63
2023-02-19T01:06:12.166Z,10.07
2023-02-19T01:07:13.933Z,8.35
2023-02-19T01:08:15.971Z,10.52
2023-02-19T01:09:17.931Z,10.10
2023-02-19T01:10:19.962Z,11.43
2023-02-19T01:11:21.917Z,8.50
2023-02-19T01:12:23.860Z,9.98
2023-02-19T01:13:26.250Z,9.67
2023-02-19T01:14:27.975Z,9.20
2023-02-19T01:15:29.681Z,10.18
2023-02-19T01:16:31.543Z,8.57
2023-02-19T01:17:35.940Z,11.75
2023-02-19T01:18:38.121Z,12.00
2023-02-19T01:19:40.272Z,8.82
2023-02-19T01:20:44.116Z,11.77
2023-02-19T01:21:45.798Z,9.27
2023-02-19T01:22:47.507Z,11.32
2023-02-19T01:23:50.987Z,11.43
2023-02-19T01:24:52.762Z,8.57
2023-02-19T01:25:54.532Z,9.38
2023-02-19T01:26:56.458Z,8.60
2023-02-19T01:27:58.350Z,10.15
2023-02-19T01:29:01.770Z,9.73
2023-02-19T01:30:03.975Z,7.60
2023-02-19T01:31:07.799Z,7.90
2023-02-19T01:32:09.969Z,12.00
2023-02-19T01:33:11.841Z,8.52
2023-02-19T01:34:13.485Z,9.50
2023-02-19T01:35:15.312Z,12.43
2023-02-19T01:36:17.403Z,13.23
2023-02-19T01:37:19.251Z,10.95
2023-02-19T01:38:21.093Z,15.50
2023-02-19T01:39:23.037Z,7.75
2023-02-19T01:40:25.442Z,10.90
2023-02-19T01:41:27.222Z,12.38
2023-02-19T01:42:28.878Z,11.57
2023-02-19T01:43:33.092Z,11.57
2023-02-19T01:44:34.723Z,10.70
2023-02-19T01:45:39.754Z,10.32
2023-02-19T01:46:46.142Z,11.57
2023-02-19T01:47:53.787Z,10.60
2023-02-19T01:48:59.220Z,10.95
2023-02-19T01:50:01.074Z,8.43
2023-02-19T01:51:09.831Z,11.65
2023-02-19T01:52:21.960Z,12.05
2023-02-19T01:53:27.803Z,10.50
2023-02-19T01:54:33.425Z,12.38
2023-02-19T01:55:35.913Z,11.57
2023-02-19T01:56:41.252Z,9.82
2023-02-19T01:57:46.916Z,8.60
2023-02-19T01:58:48.743Z,13.25
2023-02-19T01:59:54.625Z,9.88
2023-02-19T02:00:56.682Z,9.73
2023-02-19T02:02:00.622Z,11.20
2023-02-19T02:03:03.022Z,8.43
2023-02-19T02:04:06.692Z,10.50
2023-02-19T02:05:24.032Z,9.43
2023-02-19T02:06:34.231Z,11.23
2023-02-19T02:07:35.943Z,12.45
2023-02-19T02:08:38.126Z,11.80
2023-02-19T02:09:40.075Z,12.57
2023-02-19T02:10:43.245Z,7.78
2023-02-19T02:11:49.596Z,11.85
2023-02-19T02:12:57.011Z,11.43
2023-02-19T02:13:59.882Z,10.35
2023-02-19T02:15:01.721Z,8.80
2023-02-19T02:18:18.605Z,8.20
2023-02-19T02:19:36.238Z,10.95
2023-02-19T02:20:46.839Z,10.10
2023-02-19T02:22:03.772Z,10.63
2023-02-19T02:23:20.973Z,9.57
2023-02-19T02:24:49.368Z,8.63
2023-02-19T02:26:16.726Z,11.75
2023-02-19T02:27:49.294Z,13.43
2023-02-19T02:29:11.914Z,10.05
2023-02-19T02:30:25.911Z,9.65
2023-02-19T02:31:42.952Z,10.47
2023-02-19T02:33:01.700Z,9.05
2023-02-19T02:34:30.466Z,9.80
2023-02-19T02:35:40.711Z,10.73
2023-02-19T02:36:46.057Z,8.60
2023-02-19T02:37:49.828Z,12.25
2023-02-19T02:38:53.058Z,10.13
2023-02-19T02:39:57.599Z,8.68
2023-02-19T02:41:00.156Z,9.35
2023-02-19T02:42:01.901Z,9.88
2023-02-19T02:43:03.681Z,11.57
2023-02-19T02:44:05.772Z,8.57
2023-02-19T02:45:19.835Z,12.18
2023-02-19T02:46:36.486Z,12.25
2023-02-19T02:47:42.365Z,8.35
2023-02-19T02:48:57.537Z,11.57
2023-02-19T02:50:00.434Z,10.75
2023-02-19T02:51:14.281Z,9.93
2023-02-19T02:52:16.051Z,12.88
2023-02-19T02:53:36.670Z,10.98
2023-02-19T02:54:38.501Z,11.73
2023-02-19T02:55:44.334Z,13.07
2023-02-19T02:56:48.287Z,10.63
2023-02-19T02:57:50.202Z,11.77
2023-02-19T02:58:54.058Z,11.40
2023-02-19T02:59:56.509Z,11.27
2023-02-19T03:01:06.495Z,10.43
2023-02-19T03:02:12.158Z,14.05
2023-02-19T03:03:18.424Z,9.73
2023-02-19T03:04:31.183Z,10.80
2023-02-19T03:05:33.445Z,13.37
2023-02-19T03:06:37.903Z,12.15
2023-02-19T03:08:00.848Z,9.98
2023-02-19T03:09:12.897Z,11.32
2023-02-19T03:10:19.929Z,10.52
2023-02-19T03:11:21.868Z,8.85
2023-02-19T03:12:26.043Z,10.02
2023-02-19T03:13:38.730Z,12.63
2023-02-19T03:14:54.014Z,9.77
2023-02-19T03:16:02.582Z,9.00
2023-02-19T03:17:27.699Z,8.23
2023-02-19T03:18:33.486Z,11.10
2023-02-19T03:19:41.869Z,8.77
2023-02-19T03:20:48.837Z,15.20
2023-02-19T03:22:18.957Z,10.68
2023-02-19T03:23:23.470Z,14.70
2023-02-19T03:24:35.593Z,12.75
2023-02-19T03:25:39.855Z,11.07
2023-02-19T03:26:44.164Z,11.25
2023-02-19T03:27:48.165Z,10.45
2023-02-19T03:28:52.920Z,12.90
2023-02-19T03:29:59.150Z,11.07
2023-02-19T03:31:01.132Z,10.55
2023-02-19T03:32:19.143Z,14.25
2023-02-19T03:33:26.591Z,11.45
2023-02-19T03:34:55.443Z,10.73
2023-02-19T03:36:02.574Z,10.95
2023-02-19T03:37:12.312Z,11.35
2023-02-19T03:38:25.405Z,12.45
2023-02-19T03:39:27.690Z,12.00
2023-02-19T03:40:34.458Z,12.40
2023-02-19T03:41:39.192Z,12.65
2023-02-19T03:42:50.144Z,14.10
2023-02-19T03:44:17.126Z,10.48
2023-02-19T03:45:25.419Z,10.32
2023-02-19T03:46:46.180Z,10.50
2023-02-19T03:48:24.852Z,9.88
2023-02-19T03:49:40.350Z,11.07
2023-02-19T03:50:48.049Z,12.65
2023-02-19T03:52:09.886Z,14.40
2023-02-19T03:53:20.376Z,10.10
2023-02-19T03:54:42.570Z,10.73
2023-02-19T03:55:51.358Z,14.30
2023-02-19T03:57:03.075Z,15.13
2023-02-19T03:58:08.577Z,11.43
2023-02-19T03:59:17.503Z,11.23
2023-02-19T04:00:26.891Z,11.95
2023-02-19T04:01:54.997Z,11.55
2023-02-19T04:02:59.763Z,11.73
2023-02-19T04:04:01.421Z,9.85
2023-02-19T04:05:06.879Z,11.33
2023-02-19T04:06:17.329Z,10.35
2023-02-19T04:07:19.301Z,10.65
2023-02-19T04:08:24.621Z,10.45
2023-02-19T04:09:34.880Z,16.80
2023-02-19T04:10:38.188Z,11.48
2023-02-19T04:11:40.178Z,11.90
2023-02-19T04:12:48.707Z,10.73
2023-02-19T04:14:13.087Z,10.00
2023-02-19T04:15:20.569Z,11.30
2023-02-19T04:16:27.431Z,16.10
2023-02-19T04:17:35.997Z,13.02
2023-02-19T04:18:41.368Z,8.40
2023-02-19T04:19:43.516Z,11.45
2023-02-19T04:20:48.061Z,10.73
2023-02-19T04:21:52.192Z,12.70
2023-02-19T04:22:54.290Z,11.35
2023-02-19T04:24:00.877Z,10.13
2023-02-19T04:25:03.227Z,12.13
2023-02-19T04:26:07.129Z,13.52
2023-02-19T04:27:10.203Z,13.53
2023-02-19T04:28:14.614Z,14.63
2023-02-19T04:29:16.301Z,12.35
2023-02-19T04:30:18.341Z,15.48
2023-02-19T04:31:20.157Z,13.93
2023-02-19T04:32:22.089Z,12.38
2023-02-19T04:33:23.941Z,14.77
2023-02-19T04:34:25.918Z,9.88
2023-02-19T04:35:27.923Z,13.45
2023-02-19T04:36:31.166Z,12.05
2023-02-19T04:37:32.823Z,15.47
2023-02-19T04:38:34.583Z,12.35
2023-02-19T04:39:36.293Z,12.30
2023-02-19T04:40:38.024Z,14.35
2023-02-19T04:41:39.751Z,13.63
2023-02-19T04:42:41.460Z,14.77
2023-02-19T04:43:43.305Z,12.50
2023-02-19T04:44:45.069Z,10.63
2023-02-19T04:45:46.854Z,11.20
2023-02-19T04:46:48.751Z,13.43
2023-02-19T04:47:50.620Z,11.33
2023-02-19T04:48:52.273Z,12.65
2023-02-19T04:49:53.950Z,11.75
2023-02-19T04:50:56.038Z,9.45
2023-02-19T04:51:57.768Z,12.43
2023-02-19T04:52:59.436Z,12.23
2023-02-19T04:54:01.159Z,11.38
2023-02-19T04:55:03.039Z,10.70
2023-02-19T04:56:10.148Z,13.13
2023-02-19T04:57:12.022Z,11.13
2023-02-19T04:58:14.162Z,12.30
2023-02-19T04:59:15.905Z,12.68
2023-02-19T05:00:17.734Z,11.73
2023-02-19T05:01:19.467Z,11.55
2023-02-19T05:02:21.198Z,11.18
2023-02-19T05:03:23.324Z,13.13
2023-02-19T05:04:25.448Z,11.35
2023-02-19T05:05:27.529Z,11.93
2023-02-19T05:06:29.387Z,9.95
2023-02-19T05:07:31.235Z,11.18
2023-02-19T05:08:33.103Z,9.47
2023-02-19T05:09:34.820Z,10.40
2023-02-19T05:10:36.512Z,12.35
2023-02-19T05:11:38.201Z,10.13
2023-02-19T05:12:39.847Z,12.10
2023-02-19T05:13:41.728Z,9.57
2023-02-19T05:14:43.638Z,13.13
2023-02-19T05:16:14.490Z,10.70
2023-02-19T05:17:16.207Z,9.93
2023-02-19T05:18:17.891Z,8.98
2023-02-19T05:19:19.549Z,11.13
2023-02-19T05:20:21.285Z,10.27
2023-02-19T05:21:22.915Z,7.90
2023-02-19T05:22:24.642Z,11.00
2023-02-19T05:23:28.014Z,10.65
2023-02-19T05:24:29.872Z,8.52
2023-02-19T05:25:31.564Z,8.23
2023-02-19T05:26:33.454Z,11.05
2023-02-19T05:27:35.386Z,9.73
2023-02-19T05:28:37.086Z,9.38
2023-02-19T05:29:38.790Z,9.93
2023-02-19T05:30:40.504Z,9.20
2023-02-19T05:31:42.379Z,9.05
2023-02-19T05:32:44.230Z,9.70
2023-02-19T05:33:46.048Z,9.50
2023-02-19T05:34:47.747Z,10.73
2023-02-19T05:35:52.192Z,12.45
2023-02-19T05:36:54.497Z,9.85
2023-02-19T05:37:56.456Z,10.23
2023-02-19T05:38:58.444Z,9.90
2023-02-19T05:40:00.276Z,11.00
2023-02-19T05:41:12.979Z,10.45
2023-02-19T05:42:15.661Z,11.40
2023-02-19T05:43:17.762Z,10.52
2023-02-19T05:44:19.498Z,11.48
2023-02-19T05:45:21.244Z,18.02
2023-02-19T05:46:26.522Z,15.90
2023-02-19T05:47:28.675Z,11.32
2023-02-19T05:48:30.738Z,12.43
2023-02-19T05:49:32.410Z,9.75
2023-02-19T05:50:38.195Z,10.07
2023-02-19T05:51:41.280Z,13.40
2023-02-19T05:52:43.116Z,10.90
2023-02-19T05:53:45.673Z,12.05
2023-02-19T05:54:47.518Z,9.82
2023-02-19T05:55:49.594Z,10.85
2023-02-19T05:56:51.347Z,9.38
2023-02-19T05:57:53.221Z,11.00
2023-02-19T05:58:55.695Z,10.52
2023-02-19T05:59:57.632Z,11.38
2023-02-19T06:00:59.309Z,10.87
2023-02-19T06:02:01.076Z,11.50
2023-02-19T06:03:02.869Z,9.70
2023-02-19T06:04:04.849Z,13.02
2023-02-19T06:05:07.199Z,13.85
2023-02-19T06:06:13.199Z,12.85
2023-02-19T06:07:15.143Z,14.00
2023-02-19T06:08:16.954Z,10.95
2023-02-19T06:09:18.708Z,16.05
2023-02-19T06:10:20.415Z,14.30
2023-02-19T06:11:23.448Z,13.03
2023-02-19T06:12:25.311Z,12.65
2023-02-19T06:13:27.034Z,13.88
2023-02-19T06:14:29.164Z,13.88
2023-02-19T06:15:31.116Z,17.02
2023-02-19T06:16:33.319Z,15.65
2023-02-19T06:17:35.206Z,14.95
2023-02-19T06:18:37.529Z,13.23
2023-02-19T06:19:39.334Z,13.75
2023-02-19T06:20:41.005Z,16.05
2023-02-19T06:21:42.728Z,16.70
2023-02-19T06:22:44.444Z,14.55
2023-02-19T06:23:46.750Z,13.23
2023-02-19T06:24:48.863Z,13.48
2023-02-19T06:25:50.776Z,14.77
2023-02-19T06:26:52.734Z,12.75
2023-02-19T06:27:54.624Z,13.57
2023-02-19T06:28:56.588Z,15.55
2023-02-19T06:29:58.446Z,13.48
2023-02-19T06:31:00.396Z,12.40
2023-02-19T06:32:02.274Z,12.93
2023-02-19T06:33:04.094Z,15.70
2023-02-19T06:34:06.130Z,21.05
2023-02-19T06:35:08.186Z,21.42
2023-02-19T06:36:16.387Z,21.42
2023-02-19T06:37:18.072Z,17.27
2023-02-19T06:38:21.835Z,15.40
2023-02-19T06:39:23.530Z,15.00
2023-02-19T06:40:25.250Z,13.23
2023-02-19T06:41:27.035Z,12.57
2023-02-19T06:42:32.245Z,12.50
2023-02-19T06:43:35.080Z,13.05
2023-02-19T06:44:37.167Z,12.25
2023-02-19T06:45:38.954Z,15.02
2023-02-19T06:46:40.705Z,16.98
2023-02-19T06:47:42.506Z,11.85
2023-02-19T06:48:45.504Z,13.45
2023-02-19T06:49:47.298Z,11.75
2023-02-19T06:50:49.170Z,15.40
2023-02-19T06:51:51.041Z,14.30
2023-02-19T06:52:53.170Z,12.00
2023-02-19T06:53:55.781Z,12.52
2023-02-19T06:54:57.841Z,12.52
2023-02-19T06:56:02.375Z,14.25
2023-02-19T06:57:04.170Z,12.30
2023-02-19T06:58:07.088Z,12.13
2023-02-19T06:59:13.125Z,13.48
2023-02-19T07:00:15.287Z,10.68
2023-02-19T07:01:17.269Z,13.85
2023-02-19T07:02:18.991Z,12.82
2023-02-19T07:03:21.267Z,12.80
2023-02-19T07:04:23.015Z,14.32
2023-02-19T07:05:24.747Z,19.25
2023-02-19T07:06:27.467Z,12.10
2023-02-19T07:07:29.378Z,16.67
2023-02-19T07:08:31.291Z,14.48
2023-02-19T07:09:33.053Z,16.00
2023-02-19T07:10:34.973Z,13.63
2023-02-19T07:11:39.623Z,14.95
2023-02-19T07:12:41.342Z,13.75
2023-02-19T07:13:43.066Z,14.20
2023-02-19T07:14:44.775Z,14.38
2023-02-19T07:15:46.474Z,14.13
2023-02-19T07:16:48.737Z,16.02
2023-02-19T07:17:50.587Z,13.77
2023-02-19T07:18:53.505Z,13.60
2023-02-19T07:19:55.384Z,20.10
2023-02-19T07:21:17.508Z,15.95
2023-02-19T07:22:19.370Z,21.02
2023-02-19T07:23:21.598Z,14.63
2023-02-19T07:24:23.257Z,20.53
2023-02-19T07:25:24.950Z,13.65
2023-02-19T07:26:26.703Z,14.45
2023-02-19T07:27:28.391Z,14.18
2023-02-19T07:28:30.115Z,14.10
2023-02-19T07:29:31.961Z,12.52
2023-02-19T07:30:34.513Z,11.27
2023-02-19T07:31:36.550Z,13.60
2023-02-19T07:32:41.542Z,11.40
2023-02-19T07:33:47.447Z,14.75
2023-02-19T07:34:49.179Z,14.67
2023-02-19T07:35:51.490Z,11.32
2023-02-19T07:36:53.374Z,9.88
2023-02-19T07:37:55.180Z,10.60
2023-02-19T07:38:58.404Z,9.20
2023-02-19T07:40:00.283Z,9.38
2023-02-19T07:41:03.969Z,9.00
2023-02-19T07:42:05.714Z,7.50
2023-02-19T07:43:07.448Z,8.65
2023-02-19T07:44:09.124Z,8.43
2023-02-19T07:45:10.991Z,8.90
2023-02-19T07:46:14.484Z,8.85
2023-02-19T07:47:16.249Z,10.40
2023-02-19T07:48:18.801Z,8.77
2023-02-19T07:49:20.670Z,9.13
2023-02-19T07:50:22.707Z,8.50
2023-02-19T07:51:24.402Z,7.60
2023-02-19T07:52:26.296Z,11.27
2023-02-19T07:53:28.930Z,9.85
2023-02-19T07:54:30.598Z,10.95
2023-02-19T07:55:34.258Z,8.17
2023-02-19T07:56:36.153Z,7.72
2023-02-19T07:57:37.998Z,8.68
2023-02-19T07:58:40.302Z,8.93
2023-02-19T07:59:42.109Z,13.68
2023-02-19T08:00:44.607Z,9.45
2023-02-19T08:01:46.333Z,12.20
2023-02-19T08:02:47.975Z,12.10
2023-02-19T08:03:50.560Z,12.57
2023-02-19T08:04:52.363Z,11.35
2023-02-19T08:05:54.167Z,9.53
2023-02-19T08:06:55.832Z,8.82
2023-02-19T08:07:59.024Z,8.40
2023-02-19T08:09:00.663Z,9.43
2023-02-19T08:10:03.955Z,10.02
2023-02-19T08:11:07.159Z,8.60
2023-02-19T08:12:11.508Z,14.75
2023-02-19T08:13:16.030Z,9.65
2023-02-19T08:14:17.741Z,10.10
2023-02-19T08:15:21.564Z,14.43
2023-02-19T08:16:40.642Z,9.20
2023-02-19T08:17:44.074Z,11.48
2023-02-19T08:18:47.148Z,15.02
2023-02-19T08:19:48.808Z,12.35
2023-02-19T08:20:50.648Z,10.23
2023-02-19T08:21:52.545Z,14.25
2023-02-19T08:22:54.511Z,11.13
2023-02-19T08:23:56.252Z,10.68
2023-02-19T08:24:57.980Z,8.60
2023-02-19T08:26:01.414Z,10.40
2023-02-19T08:27:03.148Z,12.30
2023-02-19T08:28:05.476Z,9.18
2023-02-19T08:29:07.221Z,10.15
2023-02-19T08:30:09.306Z,8.98
2023-02-19T08:31:12.812Z,9.43
2023-02-19T08:32:14.819Z,9.63
2023-02-19T08:33:20.306Z,10.77
2023-02-19T08:34:22.040Z,11.82
2023-02-19T08:35:23.914Z,9.05
2023-02-19T08:36:25.614Z,10.38
2023-02-19T08:37:27.671Z,7.67
2023-02-19T08:38:29.371Z,9.10
2023-02-19T08:39:32.305Z,8.40
2023-02-19T08:40:34.130Z,11.45
2023-02-19T08:41:35.929Z,14.77
2023-02-19T08:42:37.818Z,11.43
2023-02-19T08:43:43.226Z,11.73
2023-02-19T08:44:44.876Z,7.18
2023-02-19T08:45:46.735Z,9.23
2023-02-19T08:46:48.595Z,10.95
2023-02-19T08:47:50.321Z,9.20
2023-02-19T08:48:52.180Z,9.35
2023-02-19T08:49:54.105Z,10.80
2023-02-19T08:50:58.351Z,10.23
2023-02-19T08:52:00.248Z,10.88
2023-02-19T08:53:03.510Z,9.35
2023-02-19T08:54:05.634Z,9.73
2023-02-19T08:55:07.651Z,11.13
2023-02-19T08:56:12.772Z,10.45
2023-02-19T08:57:14.483Z,10.07
2023-02-19T08:58:16.162Z,10.47
2023-02-19T08:59:17.862Z,11.35
2023-02-19T09:00:19.875Z,9.88
2023-02-19T09:01:21.622Z,10.25
2023-02-19T09:02:24.878Z,8.77
2023-02-19T09:03:26.577Z,13.15
2023-02-19T09:04:28.306Z,7.70
2023-02-19T09:05:30.097Z,9.15
2023-02-19T09:06:31.920Z,10.63
2023-02-19T09:07:33.798Z,11.10
2023-02-19T09:08:35.505Z,8.63
2023-02-19T09:09:37.876Z,9.63
2023-02-19T09:10:39.751Z,10.55
2023-02-19T09:11:41.608Z,9.65
2023-02-19T09:12:43.362Z,9.93
2023-02-19T09:13:45.047Z,8.60
2023-02-19T09:14:46.919Z,9.90
2023-02-19T09:15:48.639Z,9.27
2023-02-19T09:16:50.344Z,11.32
2023-02-19T09:17:52.774Z,10.68
2023-02-19T09:18:54.535Z,10.00
2023-02-19T09:19:56.212Z,9.23
2023-02-19T09:21:04.083Z,11.73
2023-02-19T09:22:06.217Z,10.35
2023-02-19T09:23:08.162Z,7.72
2023-02-19T09:24:10.281Z,9.45
2023-02-19T09:25:12.083Z,10.80
2023-02-19T09:26:13.763Z,9.40
2023-02-19T09:27:19.981Z,7.40
2023-02-19T09:28:21.598Z,8.15
2023-02-19T09:29:28.056Z,9.03
2023-02-19T09:30:29.842Z,8.80
2023-02-19T09:31:31.636Z,9.35
2023-02-19T09:32:33.671Z,7.15
2023-02-19T09:33:35.355Z,8.90
2023-02-19T09:34:38.006Z,10.13
2023-02-19T09:35:40.492Z,9.30
2023-02-19T09:36:42.320Z,12.23
2023-02-19T09:37:44.276Z,8.02
2023-02-19T09:38:46.166Z,7.70
2023-02-19T09:39:47.880Z,8.50
2023-02-19T09:40:49.636Z,9.60
2023-02-19T09:41:59.626Z,9.10
2023-02-19T09:43:02.446Z,9.18
2023-02-19T09:44:07.244Z,8.48
2023-02-19T09:45:19.173Z,9.18
2023-02-19T09:46:27.268Z,7.85
2023-02-19T09:47:31.670Z,8.63
2023-02-19T09:48:33.394Z,9.20
2023-02-19T09:49:41.997Z,10.75
2023-02-19T09:50:48.008Z,10.53
2023-02-19T09:51:56.477Z,9.48
2023-02-19T09:53:02.967Z,8.95
2023-02-19T09:54:08.180Z,8.85
2023-02-19T09:55:37.315Z,7.85
2023-02-19T09:56:39.112Z,12.18
2023-02-19T09:57:41.637Z,8.55
2023-02-19T09:58:54.400Z,7.95
2023-02-19T10:00:23.976Z,7.53
2023-02-19T10:01:32.463Z,9.68
2023-02-19T10:02:34.372Z,9.40
2023-02-19T10:03:39.258Z,10.13
2023-02-19T10:04:43.417Z,9.07
2023-02-19T10:05:45.398Z,8.93
2023-02-19T10:06:49.062Z,7.47
2023-02-19T10:07:53.608Z,8.05
2023-02-19T10:09:24.743Z,7.18
2023-02-19T10:10:33.415Z,7.35
2023-02-19T10:11:35.170Z,6.65
2023-02-19T10:12:36.963Z,6.18
2023-02-19T10:13:49.362Z,6.83
2023-02-19T10:14:56.616Z,7.35
2023-02-19T10:16:00.987Z,8.35
2023-02-19T10:17:05.602Z,6.53
2023-02-19T10:18:08.871Z,6.13
2023-02-19T10:19:13.607Z,7.93
2023-02-19T10:20:17.650Z,6.53
2023-02-19T10:21:26.073Z,6.95
2023-02-19T10:22:27.797Z,7.47
2023-02-19T10:23:30.343Z,7.45
2023-02-19T10:24:32.922Z,7.27
2023-02-19T10:25:43.127Z,7.15
2023-02-19T10:26:45.339Z,7.03
2023-02-19T10:27:47.265Z,7.32
2023-02-19T10:28:49.009Z,7.30
2023-02-19T10:29:54.632Z,9.02
2023-02-19T10:30:58.897Z,8.27
2023-02-19T10:32:21.809Z,12.73
2023-02-19T10:33:24.335Z,9.32
2023-02-19T10:34:26.044Z,9.30
2023-02-19T10:35:28.899Z,5.87
2023-02-19T10:36:38.597Z,7.57
2023-02-19T10:37:51.086Z,9.93
2023-02-19T10:38:53.584Z,7.60
2023-02-19T10:39:55.761Z,7.00
2023-02-19T10:41:19.046Z,8.10
2023-02-19T10:42:23.173Z,10.50
2023-02-19T10:43:30.851Z,7.90
2023-02-19T10:44:42.314Z,9.10
2023-02-19T10:45:48.576Z,7.35
2023-02-19T10:46:53.642Z,9.37
2023-02-19T10:47:56.732Z,6.43
2023-02-19T10:49:01.454Z,7.57
2023-02-19T10:50:04.786Z,7.05
2023-02-19T10:51:11.184Z,7.00
2023-02-19T10:52:32.082Z,6.57
2023-02-19T10:53:44.460Z,7.13
2023-02-19T10:54:51.381Z,7.90
2023-02-19T10:56:22.639Z,7.40
2023-02-19T10:57:30.234Z,6.72
2023-02-19T10:58:32.056Z,7.53
2023-02-19T10:59:33.802Z,7.25
2023-02-19T11:00:35.606Z,6.15
2023-02-19T11:01:53.033Z,8.80
2023-02-19T11:03:23.971Z,9.30
2023-02-19T11:04:30.835Z,7.32
2023-02-19T11:05:32.653Z,8.32
2023-02-19T11:06:35.142Z,6.47
2023-02-19T11:07:38.578Z,6.88
2023-02-19T11:08:48.716Z,8.30
2023-02-19T11:09:50.948Z,7.17
2023-02-19T11:10:52.662Z,7.30
2023-02-19T11:11:56.816Z,7.60
2023-02-19T11:13:02.575Z,7.63
2023-02-19T11:14:20.239Z,8.20
2023-02-19T11:15:23.726Z,10.23
2023-02-19T11:16:42.163Z,11.70
2023-02-19T11:17:44.109Z,16.15
2023-02-19T11:18:56.919Z,9.07
2023-02-19T11:20:04.518Z,9.10
2023-02-19T11:21:07.942Z,10.50
2023-02-19T11:22:34.707Z,6.88
2023-02-19T11:23:44.656Z,7.78
2023-02-19T11:24:55.454Z,8.38
2023-02-19T11:26:03.105Z,7.65
2023-02-19T11:27:16.261Z,7.85
2023-02-19T11:28:32.015Z,10.57
2023-02-19T11:29:34.695Z,8.18
2023-02-19T11:30:40.708Z,7.80
2023-02-19T11:31:42.738Z,6.78
2023-02-19T11:32:44.477Z,7.90
2023-02-19T11:33:53.021Z,7.80
2023-02-19T11:35:17.948Z,7.35
2023-02-19T11:36:36.082Z,7.60
2023-02-19T11:37:54.938Z,10.65
2023-02-19T11:38:59.031Z,11.32
2023-02-19T11:40:00.944Z,8.32
2023-02-19T11:41:34.870Z,7.40
2023-02-19T11:42:51.610Z,7.93
2023-02-19T11:44:32.268Z,8.60
2023-02-19T11:45:56.901Z,7.50
2023-02-19T11:47:20.761Z,8.63
2023-02-19T11:48:39.245Z,8.68
2023-02-19T11:49:56.349Z,6.75
2023-02-19T11:51:24.334Z,6.30
2023-02-19T11:52:44.504Z,9.05
2023-02-19T11:53:53.498Z,7.97
2023-02-19T11:55:25.781Z,6.88
2023-02-19T11:56:36.582Z,8.00
2023-02-19T11:57:40.426Z,9.90
2023-02-19T11:58:50.814Z,7.60
2023-02-19T11:59:59.810Z,8.45
2023-02-19T12:01:40.162Z,7.07
2023-02-19T12:02:55.233Z,6.85
2023-02-19T12:04:15.932Z,8.30
2023-02-19T12:05:34.630Z,5.63
2023-02-19T12:06:45.833Z,6.85
2023-02-19T12:07:53.275Z,7.90
2023-02-19T12:09:31.155Z,7.70
2023-02-19T12:10:52.791Z,7.65
2023-02-19T12:12:22.468Z,7.60
2023-02-19T12:13:46.908Z,7.57
2023-02-19T12:14:57.359Z,7.13
2023-02-19T12:16:31.380Z,7.88
2023-02-19T12:18:15.263Z,7.50
2023-02-19T12:19:39.717Z,7.63
2023-02-19T12:20:50.260Z,6.85
2023-02-19T12:22:23.372Z,7.78
2023-02-19T12:24:02.346Z,8.18
2023-02-19T12:25:32.206Z,7.00
2023-02-19T12:27:24.405Z,6.87
2023-02-19T12:28:44.954Z,8.40
2023-02-19T12:29:49.285Z,7.15
2023-02-19T12:30:57.871Z,9.65
2023-02-19T12:32:24.137Z,5.70
2023-02-19T12:33:25.862Z,6.20
2023-02-19T12:34:49.348Z,6.65
2023-02-19T12:36:05.888Z,6.88
2023-02-19T12:37:38.746Z,7.15
2023-02-19T12:38:47.820Z,6.32
2023-02-19T12:40:12.659Z,7.87
2023-02-19T12:41:35.828Z,10.48
2023-02-19T12:43:11.018Z,7.57
2023-02-19T12:44:25.664Z,6.30
2023-02-19T12:45:37.033Z,6.90
2023-02-19T12:46:44.786Z,7.35
2023-02-19T12:48:01.676Z,6.65
2023-02-19T12:49:13.642Z,7.72
2023-02-19T12:50:21.594Z,7.85
2023-02-19T12:51:32.494Z,7.18
2023-02-19T12:52:40.890Z,8.57
2023-02-19T12:53:51.993Z,8.15
2023-02-19T12:54:58.051Z,6.07
2023-02-19T12:56:05.667Z,7.68
2023-02-19T12:57:27.031Z,7.00
2023-02-19T12:58:35.481Z,6.72
2023-02-19T13:00:03.452Z,7.70
2023-02-19T13:01:07.382Z,8.45
2023-02-19T13:02:55.591Z,8.50
2023-02-19T13:04:12.953Z,9.68
2023-02-19T13:05:33.124Z,9.07
2023-02-19T13:06:45.379Z,7.53
2023-02-19T13:08:15.832Z,7.20
2023-02-19T13:09:39.420Z,7.00
2023-02-19T13:11:21.617Z,7.45
2023-02-19T13:12:31.341Z,7.15
2023-02-19T13:13:57.919Z,6.65
2023-02-19T13:15:34.506Z,7.25
2023-02-19T13:16:40.385Z,6.43
2023-02-19T13:17:58.126Z,7.85
2023-02-19T13:19:03.760Z,9.40
2023-02-19T13:20:36.641Z,8.82
2023-02-19T13:21:39.137Z,7.00
2023-02-19T13:22:55.281Z,6.68
2023-02-19T13:23:57.253Z,8.07
2023-02-19T13:25:01.581Z,7.60
2023-02-19T13:26:40.581Z,7.30
2023-02-19T13:28:25.744Z,8.05
2023-02-19T13:29:46.003Z,6.85
2023-02-19T13:31:01.127Z,8.75
2023-02-19T13:32:30.254Z,8.60
2023-02-19T13:33:48.362Z,8.95
2023-02-19T13:35:21.352Z,6.13
2023-02-19T13:36:29.539Z,8.13
2023-02-19T13:37:35.105Z,6.50
2023-02-19T13:38:43.522Z,9.00
2023-02-19T13:39:56.556Z,6.90
2023-02-19T13:41:00.372Z,7.75
2023-02-19T13:42:02.517Z,6.82
2023-02-19T13:43:23.474Z,6.65
2023-02-19T13:44:31.923Z,7.47
2023-02-19T13:45:46.347Z,6.75
2023-02-19T13:46:49.740Z,7.35
2023-02-19T13:47:54.382Z,8.13
2023-02-19T13:49:30.066Z,7.72
2023-02-19T13:50:34.784Z,8.13
2023-02-19T13:51:36.523Z,10.13
2023-02-19T13:52:40.151Z,8.25
2023-02-19T13:53:41.847Z,7.72
2023-02-19T13:54:43.698Z,9.75
2023-02-19T13:55:51.144Z,9.83
2023-02-19T13:57:23.992Z,7.72
2023-02-19T13:58:52.264Z,12.30
2023-02-19T13:59:56.173Z,8.52
2023-02-19T14:00:59.358Z,9.35
2023-02-19T14:02:01.278Z,8.93
2023-02-19T14:03:27.438Z,7.57
2023-02-19T14:04:32.288Z,10.55
2023-02-19T14:06:01.559Z,11.57
2023-02-19T14:07:04.040Z,10.63
2023-02-19T14:08:09.753Z,14.53
2023-02-19T14:09:36.470Z,10.35
2023-02-19T14:10:53.231Z,9.77
2023-02-19T14:12:09.907Z,10.23
2023-02-19T14:13:11.793Z,12.95
2023-02-19T14:14:32.348Z,16.23
2023-02-19T14:15:37.116Z,16.27
2023-02-19T14:16:39.011Z,22.90
2023-02-19T14:17:43.635Z,29.95
2023-02-19T14:18:46.870Z,26.85
2023-02-19T14:19:51.488Z,27.93
2023-02-19T14:21:07.777Z,27.05
2023-02-19T14:22:46.707Z,25.58
2023-02-19T14:23:56.046Z,15.77
2023-02-19T14:24:58.503Z,12.52
2023-02-19T14:26:01.446Z,10.90
2023-02-19T14:27:04.360Z,9.32
2023-02-19T14:28:38.144Z,11.57
2023-02-19T14:29:40.925Z,11.52
2023-02-19T14:30:56.662Z,11.30
2023-02-19T14:31:58.597Z,10.70
2023-02-19T14:33:10.661Z,11.48
2023-02-19T14:34:20.665Z,12.50
2023-02-19T14:35:28.269Z,9.82
2023-02-19T14:36:32.919Z,10.55
2023-02-19T14:37:34.681Z,10.50
2023-02-19T14:38:42.453Z,10.82